createdAt,value
2018-05-17T00:01:45.762Z,14.60
2018-05-17T00:04:13.275Z,15.07
2018-05-17T00:06:40.781Z,14.90
2018-05-17T00:09:08.311Z,13.70
2018-05-17T00:11:36.295Z,13.43
2018-05-17T00:14:03.889Z,14.70
2018-05-17T00:16:31.383Z,15.00
2018-05-17T00:18:59.308Z,16.70
2018-05-17T00:21:26.798Z,14.63
2018-05-17T00:23:54.359Z,13.50
2018-05-17T00:26:21.910Z,12.90
2018-05-17T00:28:49.490Z,13.13
2018-05-17T00:31:16.999Z,14.03
2018-05-17T00:33:44.890Z,12.53
2018-05-17T00:36:12.821Z,13.60
2018-05-17T00:38:40.314Z,10.37
2018-05-17T00:41:07.839Z,10.87
2018-05-17T00:43:35.341Z,11.27
2018-05-17T00:46:03.259Z,11.63
2018-05-17T00:48:30.755Z,10.20
2018-05-17T00:50:58.268Z,12.60
2018-05-17T00:53:31.732Z,11.50
2018-05-17T00:55:59.703Z,12.27
2018-05-17T00:58:27.227Z,10.70
2018-05-17T01:00:54.802Z,10.50
2018-05-17T01:03:22.319Z,11.67
2018-05-17T01:05:49.819Z,12.07
2018-05-17T01:08:17.326Z,12.00
2018-05-17T01:10:44.814Z,10.07
2018-05-17T01:13:12.743Z,9.38
2018-05-17T01:15:40.238Z,8.93
2018-05-17T01:18:07.739Z,8.67
2018-05-17T01:20:35.255Z,9.33
2018-05-17T01:23:03.234Z,6.70
2018-05-17T01:25:30.777Z,7.12
2018-05-17T01:27:58.288Z,8.48
2018-05-17T01:30:25.812Z,8.82
2018-05-17T01:32:53.325Z,8.77
2018-05-17T01:35:20.851Z,7.62
2018-05-17T01:38:00.403Z,8.40
2018-05-17T01:40:27.913Z,7.00
2018-05-17T01:42:55.810Z,6.93
2018-05-17T01:45:23.813Z,6.78
2018-05-17T01:47:51.820Z,6.97
2018-05-17T01:50:19.366Z,6.75
2018-05-17T01:52:46.887Z,8.48
2018-05-17T01:55:14.395Z,8.38
2018-05-17T01:57:41.928Z,6.87
2018-05-17T02:00:09.836Z,7.28
2018-05-17T02:02:37.737Z,7.20
2018-05-17T02:05:05.296Z,6.57
2018-05-17T02:07:32.812Z,5.35
2018-05-17T02:10:00.311Z,6.37
2018-05-17T02:12:27.841Z,5.95
2018-05-17T02:14:55.431Z,5.90
2018-05-17T02:17:22.936Z,5.70
2018-05-17T02:19:50.506Z,4.62
2018-05-17T02:22:18.400Z,5.55
2018-05-17T02:24:46.316Z,6.35
2018-05-17T02:27:13.809Z,6.90
2018-05-17T02:29:41.323Z,5.75
2018-05-17T02:32:08.819Z,6.57
2018-05-17T02:34:36.338Z,5.50
2018-05-17T02:37:03.840Z,6.40
2018-05-17T02:39:31.368Z,7.00
2018-05-17T02:41:58.861Z,7.57
2018-05-17T02:44:26.455Z,7.10
2018-05-17T02:46:53.967Z,6.78
2018-05-17T02:49:21.475Z,7.97
2018-05-17T02:51:49.008Z,7.00
2018-05-17T02:54:16.505Z,6.25
2018-05-17T02:56:44.421Z,7.55
2018-05-17T02:59:11.928Z,6.40
2018-05-17T03:01:39.447Z,7.30
2018-05-17T03:04:06.938Z,6.93
2018-05-17T03:06:34.941Z,7.55
2018-05-17T03:09:02.846Z,6.70
2018-05-17T03:11:30.367Z,7.85
2018-05-17T03:13:57.859Z,7.70
2018-05-17T03:16:25.454Z,7.07
2018-05-17T03:18:53.046Z,7.72
2018-05-17T03:21:20.538Z,7.90
2018-05-17T03:23:48.049Z,8.18
2018-05-17T03:26:15.550Z,9.07
2018-05-17T03:28:43.087Z,8.63
2018-05-17T03:31:10.675Z,9.23
2018-05-17T03:33:38.597Z,9.55
2018-05-17T03:36:06.081Z,8.80
2018-05-17T03:38:33.587Z,10.20
2018-05-17T03:41:01.118Z,10.57
2018-05-17T03:43:28.631Z,10.13
2018-05-17T03:45:56.130Z,12.18
2018-05-17T03:48:23.660Z,11.45
2018-05-17T03:50:51.215Z,10.65
2018-05-17T03:53:18.733Z,11.10
2018-05-17T03:55:46.247Z,11.95
2018-05-17T03:58:13.745Z,12.68
2018-05-17T04:00:53.272Z,12.45
2018-05-17T04:03:32.729Z,12.25
2018-05-17T04:06:12.108Z,11.93
2018-05-17T04:08:40.119Z,12.35
2018-05-17T04:11:07.539Z,13.05
2018-05-17T04:13:35.034Z,11.88
2018-05-17T04:16:02.547Z,12.25
2018-05-17T04:18:30.444Z,13.35
2018-05-17T04:20:58.356Z,11.70
2018-05-17T04:23:25.841Z,12.82
2018-05-17T04:25:54.335Z,13.55
2018-05-17T04:28:22.222Z,12.68
2018-05-17T04:30:50.197Z,12.80
2018-05-17T04:33:17.695Z,13.43
2018-05-17T04:35:45.198Z,11.57
2018-05-17T04:38:13.087Z,13.60
2018-05-17T04:40:40.999Z,12.75
2018-05-17T04:43:08.543Z,12.27
2018-05-17T04:45:36.123Z,12.70
2018-05-17T04:48:03.623Z,13.23
2018-05-17T04:50:31.608Z,13.25
2018-05-17T04:52:59.622Z,13.45
2018-05-17T04:55:27.534Z,12.90
2018-05-17T04:57:55.018Z,12.13
2018-05-17T05:00:22.524Z,13.65
2018-05-17T05:02:50.036Z,13.18
2018-05-17T05:05:17.627Z,12.95
2018-05-17T05:07:45.147Z,13.20
2018-05-17T05:10:12.692Z,13.82
2018-05-17T05:12:40.283Z,13.90
2018-05-17T05:15:07.788Z,14.38
2018-05-17T05:17:35.306Z,13.02
2018-05-17T05:20:02.836Z,14.82
2018-05-17T05:22:30.828Z,15.80
2018-05-17T05:24:58.336Z,16.08
2018-05-17T05:27:25.894Z,16.92
2018-05-17T05:29:53.479Z,16.95
2018-05-17T05:32:21.068Z,17.67
2018-05-17T05:34:48.583Z,19.05
2018-05-17T05:37:16.131Z,17.52
2018-05-17T05:39:43.651Z,17.83
2018-05-17T05:42:11.206Z,15.90
2018-05-17T05:44:39.130Z,17.70
2018-05-17T05:47:06.636Z,17.65
2018-05-17T05:49:34.252Z,18.30
2018-05-17T05:52:01.749Z,15.45
2018-05-17T05:54:29.264Z,16.12
2018-05-17T05:56:56.782Z,15.60
2018-05-17T05:59:24.290Z,16.05
2018-05-17T06:01:51.794Z,16.15
2018-05-17T06:04:19.714Z,15.60
2018-05-17T06:06:47.254Z,16.37
2018-05-17T06:09:14.751Z,15.05
2018-05-17T06:11:42.662Z,16.23
2018-05-17T06:14:10.177Z,17.40
2018-05-17T06:16:37.690Z,13.95
2018-05-17T06:19:05.187Z,15.95
2018-05-17T06:21:33.180Z,14.73
2018-05-17T06:24:01.091Z,16.77
2018-05-17T06:26:29.003Z,17.65
2018-05-17T06:28:56.507Z,16.42
2018-05-17T06:31:24.035Z,18.45
2018-05-17T06:33:52.039Z,18.42
2018-05-17T06:36:19.606Z,17.45
2018-05-17T06:38:47.204Z,19.35
2018-05-17T06:41:15.191Z,19.12
2018-05-17T06:43:42.801Z,18.35
2018-05-17T06:46:10.323Z,17.83
2018-05-17T06:48:37.839Z,18.60
2018-05-17T06:51:05.360Z,18.10
2018-05-17T06:53:32.863Z,18.35
2018-05-17T06:56:00.387Z,19.48
2018-05-17T06:58:27.974Z,20.45
2018-05-17T07:00:55.545Z,22.67
2018-05-17T07:03:23.016Z,22.05
2018-05-17T07:05:50.630Z,20.62
2018-05-17T07:08:18.228Z,20.05
2018-05-17T07:10:46.143Z,22.65
2018-05-17T07:13:13.637Z,21.85
2018-05-17T07:15:41.188Z,24.27
2018-05-17T07:18:09.195Z,22.23
2018-05-17T07:20:36.621Z,21.63
2018-05-17T07:23:04.123Z,21.63
2018-05-17T07:25:31.626Z,17.67
2018-05-17T07:27:59.534Z,14.27
2018-05-17T07:30:27.438Z,15.17
2018-05-17T07:32:55.407Z,15.03
2018-05-17T07:35:22.933Z,15.43
2018-05-17T07:37:50.434Z,14.98
2018-05-17T07:40:17.960Z,16.17
2018-05-17T07:42:45.534Z,14.50
2018-05-17T07:45:13.047Z,15.13
2018-05-17T07:47:40.575Z,15.30
2018-05-17T07:50:08.070Z,13.88
2018-05-17T07:52:35.677Z,14.70
2018-05-17T07:55:03.578Z,14.00
2018-05-17T07:57:31.550Z,13.90
2018-05-17T07:59:59.033Z,11.23
2018-05-17T08:02:26.574Z,11.80
2018-05-17T08:04:54.120Z,11.87
2018-05-17T08:07:22.099Z,9.63
2018-05-17T08:09:49.585Z,10.83
2018-05-17T08:12:17.095Z,11.60
2018-05-17T08:14:44.597Z,10.83
2018-05-17T08:17:12.135Z,12.23
2018-05-17T08:19:39.635Z,11.40
2018-05-17T08:22:07.547Z,11.70
2018-05-17T08:24:35.090Z,11.47
2018-05-17T08:27:02.674Z,12.43
2018-05-17T08:29:30.166Z,12.17
2018-05-17T08:31:57.687Z,12.20
2018-05-17T08:34:25.179Z,11.97
2018-05-17T08:36:52.691Z,11.00
2018-05-17T08:39:20.192Z,13.20
2018-05-17T08:41:47.778Z,11.17
2018-05-17T08:44:15.261Z,12.50
2018-05-17T08:46:42.842Z,11.10
2018-05-17T08:49:10.356Z,8.83
2018-05-17T08:51:38.332Z,9.90
2018-05-17T08:54:05.817Z,10.80
2018-05-17T08:56:33.751Z,9.30
2018-05-17T08:59:01.303Z,9.37
2018-05-17T09:01:29.211Z,8.30
2018-05-17T09:03:56.703Z,7.93
2018-05-17T09:06:24.237Z,7.17
2018-05-17T09:08:51.746Z,8.03
2018-05-17T09:11:19.726Z,7.60
2018-05-17T09:13:47.318Z,6.93
2018-05-17T09:16:15.294Z,6.67
2018-05-17T09:18:42.793Z,8.20
2018-05-17T09:21:10.686Z,10.03
2018-05-17T09:23:38.582Z,12.40
2018-05-17T09:26:06.470Z,9.60
2018-05-17T09:28:34.383Z,9.47
2018-05-17T09:31:01.883Z,13.03
2018-05-17T09:33:29.394Z,14.30
2018-05-17T09:35:56.892Z,13.23
2018-05-17T09:38:24.404Z,13.10
2018-05-17T09:40:51.917Z,11.10
2018-05-17T09:43:19.443Z,11.47
2018-05-17T09:45:47.063Z,13.27
2018-05-17T09:48:14.590Z,12.53
2018-05-17T09:50:42.078Z,11.83
2018-05-17T09:53:09.601Z,12.40
2018-05-17T09:55:37.489Z,12.00
2018-05-17T09:58:05.475Z,10.80
2018-05-17T10:00:33.942Z,11.30
2018-05-17T10:03:01.456Z,11.03
2018-05-17T10:05:28.954Z,9.77
2018-05-17T10:07:56.854Z,9.60
2018-05-17T10:10:24.752Z,8.53
2018-05-17T10:12:52.274Z,9.07
2018-05-17T10:15:19.774Z,7.97
2018-05-17T10:17:47.287Z,8.50
2018-05-17T10:20:15.176Z,8.07
2018-05-17T10:22:43.083Z,6.87
2018-05-17T10:25:10.968Z,6.87
2018-05-17T10:27:38.942Z,7.97
2018-05-17T10:30:06.425Z,7.80
2018-05-17T10:32:33.945Z,9.00
2018-05-17T10:35:01.458Z,10.40
2018-05-17T10:37:28.951Z,11.70
2018-05-17T10:39:56.467Z,14.43
2018-05-17T10:42:23.958Z,15.80
2018-05-17T10:44:51.867Z,19.60
2018-05-17T10:47:19.844Z,15.33
2018-05-17T10:49:47.752Z,18.43
2018-05-17T10:52:15.650Z,18.87
2018-05-17T10:54:43.216Z,19.10
2018-05-17T10:57:11.102Z,15.13
2018-05-17T10:59:38.682Z,15.13
2018-05-17T11:02:06.175Z,13.17
2018-05-17T11:04:34.079Z,12.83
2018-05-17T11:07:01.991Z,13.10
2018-05-17T11:09:29.503Z,14.03
2018-05-17T11:11:57.014Z,12.57
2018-05-17T11:14:24.605Z,12.00
2018-05-17T11:16:52.600Z,12.00
2018-05-17T11:19:20.512Z,9.43
2018-05-17T11:21:48.409Z,8.10
2018-05-17T11:24:15.968Z,8.83
2018-05-17T11:26:43.458Z,8.27
2018-05-17T11:29:11.354Z,8.33
2018-05-17T11:31:39.239Z,7.30
2018-05-17T11:34:06.753Z,7.40
2018-05-17T11:36:34.256Z,7.90
2018-05-17T11:39:01.773Z,8.60
2018-05-17T11:41:29.273Z,10.43
2018-05-17T11:43:57.175Z,8.83
2018-05-17T11:46:25.059Z,7.77
2018-05-17T11:48:52.953Z,7.93
2018-05-17T11:51:20.834Z,8.37
2018-05-17T11:53:48.423Z,6.50
2018-05-17T11:56:16.003Z,8.10
2018-05-17T11:58:43.615Z,6.90
2018-05-17T12:01:11.495Z,8.00
2018-05-17T12:03:39.016Z,7.50
2018-05-17T12:06:06.507Z,10.30
2018-05-17T12:08:34.035Z,10.70
2018-05-17T12:11:01.548Z,8.20
2018-05-17T12:13:29.101Z,9.70
2018-05-17T12:15:56.683Z,9.50
2018-05-17T12:18:24.272Z,8.40
2018-05-17T12:20:51.809Z,6.70
2018-05-17T12:23:19.299Z,7.33
2018-05-17T12:25:46.842Z,7.80
2018-05-17T12:28:14.721Z,7.60
2018-05-17T12:30:42.295Z,8.40
2018-05-17T12:33:09.788Z,7.77
2018-05-17T12:35:37.289Z,8.60
2018-05-17T12:38:05.171Z,8.67
2018-05-17T12:40:33.152Z,8.23
2018-05-17T12:43:00.736Z,6.77
2018-05-17T12:45:28.247Z,6.60
2018-05-17T12:47:55.735Z,5.80
2018-05-17T12:50:23.288Z,6.20
2018-05-17T12:52:50.765Z,7.70
2018-05-17T12:55:18.272Z,6.47
2018-05-17T12:57:46.156Z,7.93
2018-05-17T13:00:14.068Z,9.07
2018-05-17T13:02:41.555Z,8.57
2018-05-17T13:05:13.695Z,8.73
2018-05-17T13:07:41.186Z,8.57
2018-05-17T13:10:08.802Z,8.57
2018-05-17T13:12:36.674Z,8.37
2018-05-17T13:15:04.261Z,8.47
2018-05-17T13:17:32.149Z,8.50
2018-05-17T13:19:59.723Z,8.97
2018-05-17T13:22:27.214Z,9.70
2018-05-17T13:24:54.870Z,7.77
2018-05-17T13:27:22.703Z,9.00
2018-05-17T13:29:50.607Z,7.83
2018-05-17T13:32:18.491Z,9.50
2018-05-17T13:34:46.471Z,8.10
2018-05-17T13:37:14.380Z,8.20
2018-05-17T13:39:42.261Z,8.73
2018-05-17T13:42:09.772Z,8.47
2018-05-17T13:44:37.260Z,8.07
2018-05-17T13:47:04.784Z,8.70
2018-05-17T13:49:32.287Z,8.30
2018-05-17T13:51:59.798Z,6.93
2018-05-17T13:54:27.675Z,7.20
2018-05-17T13:56:55.179Z,7.70
2018-05-17T13:59:22.736Z,7.00
2018-05-17T14:01:50.272Z,7.70
2018-05-17T14:04:17.799Z,6.90
2018-05-17T14:06:45.312Z,8.20
2018-05-17T14:09:12.816Z,6.97
2018-05-17T14:11:40.328Z,7.57
2018-05-17T14:14:07.817Z,7.80
2018-05-17T14:16:35.416Z,5.93
2018-05-17T14:19:02.916Z,7.70
2018-05-17T14:21:30.886Z,6.70
2018-05-17T14:23:58.392Z,6.87
2018-05-17T14:26:26.366Z,7.37
2018-05-17T14:28:53.970Z,7.80
2018-05-17T14:31:21.878Z,7.20
2018-05-17T14:33:49.388Z,7.50
2018-05-17T14:36:16.909Z,7.53
2018-05-17T14:38:44.560Z,6.73
2018-05-17T14:41:12.436Z,7.00
2018-05-17T14:43:39.987Z,6.90
2018-05-17T14:46:08.006Z,6.80
2018-05-17T14:48:35.872Z,6.70
2018-05-17T14:51:03.451Z,6.60
2018-05-17T14:53:30.963Z,7.20
2018-05-17T14:55:58.927Z,7.27
2018-05-17T14:58:26.412Z,7.17
2018-05-17T15:00:53.999Z,7.50
2018-05-17T15:03:21.505Z,7.77
2018-05-17T15:05:49.479Z,6.50
2018-05-17T15:08:17.054Z,7.57
2018-05-17T15:10:44.534Z,7.13
2018-05-17T15:13:12.131Z,8.33
2018-05-17T15:15:39.623Z,7.40
2018-05-17T15:18:07.518Z,7.23
2018-05-17T15:20:35.399Z,6.67
2018-05-17T15:23:02.907Z,7.23
2018-05-17T15:25:30.874Z,7.57
2018-05-17T15:27:58.375Z,6.73
2018-05-17T15:30:26.259Z,7.30
2018-05-17T15:32:53.833Z,6.80
2018-05-17T15:35:21.313Z,5.80
2018-05-17T15:37:48.819Z,6.50
2018-05-17T15:40:16.796Z,7.53
2018-05-17T15:42:44.298Z,6.70
2018-05-17T15:45:12.179Z,7.07
2018-05-17T15:47:40.086Z,6.87
2018-05-17T15:50:08.049Z,6.50
2018-05-17T15:52:35.558Z,6.57
2018-05-17T15:55:03.531Z,6.70
2018-05-17T15:57:31.039Z,5.70
2018-05-17T15:59:58.924Z,6.10
2018-05-17T16:02:26.814Z,7.17
2018-05-17T16:04:54.699Z,6.83
2018-05-17T16:07:22.611Z,7.27
2018-05-17T16:09:50.157Z,6.67
2018-05-17T16:12:17.766Z,7.60
2018-05-17T16:14:45.882Z,7.10
2018-05-17T16:17:13.659Z,5.90
2018-05-17T16:19:41.539Z,6.00
2018-05-17T16:22:09.223Z,5.70
2018-05-17T16:24:36.711Z,6.50
2018-05-17T16:27:04.635Z,5.80
2018-05-17T16:29:32.179Z,5.73
2018-05-17T16:31:59.687Z,5.97
2018-05-17T16:34:27.175Z,5.77
2018-05-17T16:36:54.697Z,5.80
2018-05-17T16:39:22.231Z,6.37
2018-05-17T16:41:50.311Z,5.07
2018-05-17T16:44:17.823Z,4.87
2018-05-17T16:46:45.325Z,5.07
2018-05-17T16:49:12.835Z,5.00
2018-05-17T16:51:40.323Z,5.60
2018-05-17T16:54:08.006Z,5.10
2018-05-17T16:56:35.829Z,5.83
2018-05-17T16:59:03.730Z,5.67
2018-05-17T17:01:31.706Z,5.70
2018-05-17T17:03:59.699Z,5.90
2018-05-17T17:06:27.275Z,5.97
2018-05-17T17:08:54.819Z,5.27
2018-05-17T17:11:22.296Z,5.20
2018-05-17T17:13:49.826Z,4.40
2018-05-17T17:16:17.331Z,6.07
2018-05-17T17:18:45.238Z,5.23
2018-05-17T17:21:12.735Z,6.33
2018-05-17T17:23:40.271Z,6.30
2018-05-17T17:26:07.979Z,5.57
2018-05-17T17:28:35.893Z,5.10
2018-05-17T17:31:03.391Z,5.87
2018-05-17T17:33:30.919Z,5.83
2018-05-17T17:35:58.416Z,6.43
2018-05-17T17:38:26.322Z,6.43
2018-05-17T17:40:54.228Z,5.30
2018-05-17T17:43:21.848Z,5.40
2018-05-17T17:45:49.379Z,6.53
2018-05-17T17:48:17.311Z,5.70
2018-05-17T17:50:46.725Z,6.30
2018-05-17T17:53:14.291Z,7.03
2018-05-17T17:55:41.782Z,5.97
2018-05-17T17:58:09.291Z,6.13
2018-05-17T18:00:36.815Z,6.63
2018-05-17T18:03:04.321Z,6.77
2018-05-17T18:05:31.957Z,6.57
2018-05-17T18:07:59.594Z,7.10
2018-05-17T18:10:27.512Z,6.67
2018-05-17T18:12:55.049Z,7.60
2018-05-17T18:15:22.560Z,6.47
2018-05-17T18:17:51.031Z,6.10
2018-05-17T18:20:18.542Z,6.87
2018-05-17T18:22:46.435Z,7.17
2018-05-17T18:25:14.431Z,7.07
2018-05-17T18:27:42.406Z,6.90
2018-05-17T18:30:10.044Z,6.33
2018-05-17T18:32:37.591Z,7.13
2018-05-17T18:35:05.574Z,6.40
2018-05-17T18:37:33.496Z,6.70
2018-05-17T18:40:01.035Z,6.77
2018-05-17T18:42:28.523Z,6.80
2018-05-17T18:44:56.169Z,7.07
2018-05-17T18:47:23.584Z,7.20
2018-05-17T18:49:51.087Z,6.10
2018-05-17T18:52:19.042Z,7.03
2018-05-17T18:54:46.655Z,6.73
2018-05-17T18:57:14.151Z,6.80
2018-05-17T18:59:42.063Z,6.30
2018-05-17T19:02:10.040Z,8.00
2018-05-17T19:04:37.492Z,6.93
2018-05-17T19:07:04.991Z,6.80
2018-05-17T19:09:32.512Z,6.73
2018-05-17T19:12:00.036Z,7.53
2018-05-17T19:14:27.540Z,7.50
2018-05-17T19:16:55.031Z,6.10
2018-05-17T19:19:23.013Z,6.53
2018-05-17T19:21:50.503Z,6.90
2018-05-17T19:24:18.187Z,6.93
2018-05-17T19:26:45.769Z,7.00
2018-05-17T19:29:13.369Z,6.10
2018-05-17T19:31:40.903Z,7.67
2018-05-17T19:34:08.398Z,6.20
2018-05-17T19:36:35.887Z,6.87
2018-05-17T19:39:03.392Z,7.17
2018-05-17T19:41:30.911Z,6.80
2018-05-17T19:43:58.413Z,7.07
2018-05-17T19:46:25.921Z,6.40
2018-05-17T19:48:53.415Z,6.90
2018-05-17T19:51:20.923Z,7.50
2018-05-17T19:53:48.810Z,6.60
2018-05-17T19:56:16.328Z,7.80
2018-05-17T19:58:43.823Z,7.57
2018-05-17T20:01:11.355Z,7.03
2018-05-17T20:03:38.855Z,6.70
2018-05-17T20:06:06.829Z,7.80
2018-05-17T20:08:34.318Z,6.10
2018-05-17T20:11:01.831Z,7.63
2018-05-17T20:13:29.330Z,6.63
2018-05-17T20:15:56.834Z,8.83
2018-05-17T20:18:24.318Z,6.70
2018-05-17T20:20:51.930Z,7.10
2018-05-17T20:23:19.427Z,6.60
2018-05-17T20:25:47.414Z,7.27
2018-05-17T20:28:14.930Z,6.97
2018-05-17T20:30:42.430Z,7.60
2018-05-17T20:33:09.963Z,6.03
2018-05-17T20:35:37.556Z,7.40
2018-05-17T20:38:05.059Z,7.20
2018-05-17T20:40:32.626Z,7.23
2018-05-17T20:43:00.601Z,7.53
2018-05-17T20:45:28.222Z,7.33
2018-05-17T20:47:56.218Z,5.80
2018-05-17T20:50:23.722Z,7.30
2018-05-17T20:52:51.236Z,7.17
2018-05-17T20:55:18.756Z,7.37
2018-05-17T20:57:46.353Z,7.73
2018-05-17T21:00:14.323Z,6.63
2018-05-17T21:02:41.915Z,6.20
2018-05-17T21:05:09.398Z,7.20
2018-05-17T21:07:36.974Z,7.40
2018-05-17T21:10:04.463Z,7.17
2018-05-17T21:12:31.982Z,7.23
2018-05-17T21:14:59.523Z,6.43
2018-05-17T21:17:27.115Z,6.80
2018-05-17T21:19:54.616Z,7.53
2018-05-17T21:22:22.514Z,7.57
2018-05-17T21:24:50.406Z,7.50
2018-05-17T21:27:18.366Z,7.20
2018-05-17T21:29:45.821Z,7.03
2018-05-17T21:32:13.331Z,7.90
2018-05-17T21:34:40.836Z,7.17
2018-05-17T21:37:08.343Z,8.07
2018-05-17T21:39:35.842Z,7.07
2018-05-17T21:42:03.387Z,6.90
2018-05-17T21:44:31.284Z,6.70
2018-05-17T21:46:59.258Z,7.37
2018-05-17T21:49:26.749Z,7.75
2018-05-17T21:51:54.663Z,7.27
2018-05-17T21:54:22.542Z,7.47
2018-05-17T21:56:50.452Z,7.60
2018-05-17T21:59:22.886Z,7.50
2018-05-17T22:01:50.390Z,8.20
2018-05-17T22:04:17.879Z,7.67
2018-05-17T22:06:45.798Z,9.53
2018-05-17T22:09:13.690Z,8.95
2018-05-17T22:11:41.678Z,8.65
2018-05-17T22:14:09.566Z,8.10
2018-05-17T22:16:37.079Z,9.50
2018-05-17T22:19:04.622Z,8.40
2018-05-17T22:21:32.140Z,8.02
2018-05-17T22:23:59.700Z,8.80
2018-05-17T22:26:27.695Z,8.63
2018-05-17T22:28:55.704Z,9.75
2018-05-17T22:31:23.595Z,9.15
2018-05-17T22:33:51.508Z,10.10
2018-05-17T22:36:19.007Z,10.75
2018-05-17T22:38:46.523Z,9.45
2018-05-17T22:41:14.023Z,9.98
2018-05-17T22:43:41.540Z,9.80
2018-05-17T22:46:09.043Z,9.35
2018-05-17T22:48:36.562Z,12.10
2018-05-17T22:51:04.085Z,9.68
2018-05-17T22:53:31.662Z,9.77
2018-05-17T22:55:59.233Z,10.05
2018-05-17T22:58:30.762Z,11.55
2018-05-17T23:00:58.263Z,10.68
2018-05-17T23:03:25.783Z,11.57
2018-05-17T23:05:53.770Z,11.25
2018-05-17T23:08:21.763Z,11.23
2018-05-17T23:10:49.659Z,10.60
2018-05-17T23:13:17.576Z,10.68
2018-05-17T23:15:45.070Z,11.05
2018-05-17T23:18:12.592Z,10.40
2018-05-17T23:20:40.091Z,10.88
2018-05-17T23:23:07.614Z,9.95
2018-05-17T23:25:35.158Z,9.93
2018-05-17T23:28:02.755Z,8.57
2018-05-17T23:30:30.653Z,10.73
2018-05-17T23:32:58.572Z,9.13
2018-05-17T23:35:26.915Z,10.00
2018-05-17T23:37:54.426Z,9.35
2018-05-17T23:40:33.736Z,9.55
2018-05-17T23:43:01.267Z,9.75
2018-05-17T23:45:28.777Z,10.10
2018-05-17T23:47:56.305Z,9.20
2018-05-17T23:50:23.815Z,10.25
2018-05-17T23:52:51.315Z,10.23
2018-05-17T23:55:19.247Z,10.40
2018-05-17T23:57:46.756Z,10.32
